createdAt,value
2019-03-31T00:04:26.481Z,13.57
2019-03-31T00:09:30.102Z,13.43
2019-03-31T00:14:34.027Z,13.48
2019-03-31T00:19:37.290Z,13.48
2019-03-31T00:24:40.289Z,13.52
2019-03-31T00:29:43.342Z,13.50
2019-03-31T00:34:46.387Z,13.42
2019-03-31T00:39:49.477Z,13.29
2019-03-31T00:44:52.459Z,13.18
2019-03-31T00:49:55.441Z,13.13
2019-03-31T00:54:58.437Z,13.07
2019-03-31T01:00:02.150Z,13.02
2019-03-31T01:05:08.758Z,12.94
2019-03-31T01:10:14.286Z,12.85
2019-03-31T01:15:22.195Z,12.77
2019-03-31T01:20:26.122Z,12.71
2019-03-31T01:25:29.212Z,12.66
2019-03-31T01:30:33.567Z,12.62
2019-03-31T01:35:36.999Z,12.59
2019-03-31T01:40:40.357Z,12.61
2019-03-31T01:45:43.642Z,12.60
2019-03-31T01:50:46.700Z,12.59
2019-03-31T01:55:50.281Z,12.53
2019-03-31T02:00:56.812Z,12.49
2019-03-31T02:06:00.913Z,12.42
2019-03-31T02:11:04.319Z,12.36
2019-03-31T02:16:08.169Z,12.33
2019-03-31T02:21:11.300Z,12.28
2019-03-31T02:26:15.151Z,12.20
2019-03-31T02:31:19.282Z,12.16
2019-03-31T02:36:23.043Z,12.07
2019-03-31T02:41:26.755Z,11.98
2019-03-31T02:46:30.172Z,11.90
2019-03-31T02:51:33.520Z,11.82
2019-03-31T02:56:39.291Z,11.73
2019-03-31T03:01:45.280Z,11.64
2019-03-31T03:06:52.848Z,11.59
2019-03-31T03:11:58.061Z,11.50
2019-03-31T03:17:01.710Z,11.45
2019-03-31T03:22:05.002Z,11.38
2019-03-31T03:27:08.522Z,11.30
2019-03-31T03:32:11.930Z,11.26
2019-03-31T03:37:15.731Z,11.18
2019-03-31T03:42:18.730Z,11.17
2019-03-31T03:47:22.888Z,11.07
2019-03-31T03:52:25.877Z,11.00
2019-03-31T03:57:28.852Z,10.88
2019-03-31T04:02:31.946Z,10.80
2019-03-31T04:07:35.571Z,10.70
2019-03-31T04:12:39.265Z,10.63
2019-03-31T04:17:42.654Z,10.56
2019-03-31T04:22:46.120Z,10.48
2019-03-31T04:27:49.790Z,10.40
2019-03-31T04:32:53.395Z,10.34
2019-03-31T04:37:57.022Z,10.33
2019-03-31T04:43:00.312Z,10.30
2019-03-31T04:48:03.516Z,10.29
2019-03-31T04:53:07.702Z,10.27
2019-03-31T04:58:13.555Z,10.23
2019-03-31T05:03:16.884Z,10.18
2019-03-31T05:08:20.836Z,10.10
2019-03-31T05:13:24.526Z,10.05
2019-03-31T05:18:27.808Z,10.04
2019-03-31T05:23:31.426Z,10.02
2019-03-31T05:28:34.833Z,10.04
2019-03-31T05:33:38.335Z,10.02
2019-03-31T05:38:41.672Z,10.04
2019-03-31T05:43:45.096Z,10.05
2019-03-31T05:48:48.397Z,9.97
2019-03-31T05:53:51.379Z,9.96
2019-03-31T05:58:54.690Z,9.97
2019-03-31T06:03:57.968Z,9.97
2019-03-31T06:09:00.940Z,9.95
2019-03-31T06:14:04.262Z,9.89
2019-03-31T06:19:07.924Z,9.88
2019-03-31T06:24:11.869Z,10.00
2019-03-31T06:29:14.891Z,10.15
2019-03-31T06:34:17.983Z,10.39
2019-03-31T06:39:20.965Z,11.24
2019-03-31T06:44:24.317Z,11.99
2019-03-31T06:49:27.305Z,12.70
2019-03-31T06:54:31.469Z,13.50
2019-03-31T06:59:34.490Z,14.37
2019-03-31T07:04:38.273Z,14.64
2019-03-31T07:09:41.546Z,15.16
2019-03-31T07:14:44.537Z,15.79
2019-03-31T07:19:47.752Z,16.31
2019-03-31T07:24:50.978Z,16.72
2019-03-31T07:29:55.002Z,15.88
2019-03-31T07:34:58.643Z,14.57
2019-03-31T07:40:02.342Z,13.81
2019-03-31T07:45:08.525Z,13.36
2019-03-31T07:50:12.871Z,13.12
2019-03-31T07:55:17.687Z,13.01
2019-03-31T08:00:21.802Z,12.68
2019-03-31T08:05:32.987Z,12.44
2019-03-31T08:10:32.068Z,12.31
2019-03-31T08:15:36.140Z,12.44
2019-03-31T08:20:39.482Z,13.08
2019-03-31T08:25:42.479Z,13.45
2019-03-31T08:30:45.514Z,13.20
2019-03-31T08:35:49.774Z,12.91
2019-03-31T08:40:54.367Z,12.80
2019-03-31T08:45:57.318Z,12.76
2019-03-31T08:51:01.196Z,13.12
2019-03-31T08:56:04.170Z,13.17
2019-03-31T09:01:11.196Z,13.10
2019-03-31T09:06:14.340Z,12.80
2019-03-31T09:11:17.572Z,12.69
2019-03-31T09:16:20.585Z,12.60
2019-03-31T09:21:23.685Z,12.39
2019-03-31T09:26:27.862Z,12.19
2019-03-31T09:31:30.961Z,12.02
2019-03-31T09:36:34.661Z,11.97
2019-03-31T09:41:37.652Z,11.89
2019-03-31T09:46:41.013Z,11.83
2019-03-31T09:51:44.620Z,11.74
2019-03-31T09:56:47.607Z,11.79
2019-03-31T10:01:50.934Z,12.00
2019-03-31T10:06:55.390Z,12.07
2019-03-31T10:11:58.788Z,12.37
2019-03-31T10:17:01.994Z,14.28
2019-03-31T10:22:05.010Z,15.60
2019-03-31T10:27:08.493Z,14.90
2019-03-31T10:32:12.110Z,14.17
2019-03-31T10:37:15.167Z,13.83
2019-03-31T10:42:18.753Z,13.42
2019-03-31T10:47:22.784Z,13.77
2019-03-31T10:52:26.310Z,15.04
2019-03-31T10:57:30.582Z,16.07
2019-03-31T11:02:34.147Z,17.12
2019-03-31T11:07:37.557Z,18.34
2019-03-31T11:12:40.912Z,18.86
2019-03-31T11:17:44.198Z,18.17
2019-03-31T11:22:52.979Z,17.28
2019-03-31T11:27:57.910Z,16.21
2019-03-31T11:33:01.180Z,15.88
2019-03-31T11:38:04.488Z,15.69
2019-03-31T11:43:07.641Z,15.69
2019-03-31T11:48:11.461Z,16.15
2019-03-31T11:53:14.483Z,15.98
2019-03-31T11:58:18.136Z,15.88
2019-03-31T12:03:21.827Z,16.48
2019-03-31T12:08:24.851Z,16.94
2019-03-31T12:13:28.586Z,17.33
2019-03-31T12:18:31.563Z,17.75
2019-03-31T12:23:35.521Z,17.76
2019-03-31T12:28:39.472Z,17.61
2019-03-31T12:33:43.741Z,17.88
2019-03-31T12:38:46.885Z,17.84
2019-03-31T12:43:51.022Z,17.44
2019-03-31T12:48:54.613Z,17.59
2019-03-31T12:53:58.680Z,17.87
2019-03-31T12:59:02.573Z,17.74
2019-03-31T13:04:05.761Z,17.56
2019-03-31T13:09:09.062Z,17.49
2019-03-31T13:14:12.519Z,17.39
2019-03-31T13:19:16.379Z,17.37
2019-03-31T13:24:19.667Z,17.36
2019-03-31T13:29:23.397Z,17.24
2019-03-31T13:34:26.409Z,17.24
2019-03-31T13:39:29.520Z,17.29
2019-03-31T13:44:33.325Z,17.35
2019-03-31T13:49:36.312Z,17.35
2019-03-31T13:54:40.439Z,17.43
2019-03-31T13:59:44.062Z,17.39
2019-03-31T14:04:51.699Z,17.55
2019-03-31T14:09:52.645Z,17.77
2019-03-31T14:14:56.886Z,17.91
2019-03-31T14:20:00.864Z,17.77
2019-03-31T14:25:04.644Z,17.59
2019-03-31T14:30:10.825Z,17.41
2019-03-31T14:35:14.045Z,17.32
2019-03-31T14:40:17.118Z,17.24
2019-03-31T14:45:31.959Z,17.10
2019-03-31T14:50:39.200Z,17.15
2019-03-31T14:55:42.578Z,17.21
2019-03-31T15:00:45.641Z,17.25
2019-03-31T15:05:48.964Z,17.24
2019-03-31T15:10:52.342Z,17.16
2019-03-31T15:15:56.192Z,17.08
2019-03-31T15:20:59.203Z,16.94
2019-03-31T15:26:03.070Z,16.84
2019-03-31T15:31:06.402Z,16.85
2019-03-31T15:36:10.702Z,16.72
2019-03-31T15:41:21.028Z,16.45
2019-03-31T15:46:19.283Z,16.26
2019-03-31T15:51:22.307Z,16.27
2019-03-31T15:56:25.437Z,16.20
2019-03-31T16:01:28.425Z,16.18
2019-03-31T16:06:31.448Z,16.11
2019-03-31T16:11:33.646Z,15.94
2019-03-31T16:16:35.884Z,15.84
2019-03-31T16:21:38.048Z,15.67
2019-03-31T16:26:41.068Z,15.46
2019-03-31T16:31:43.500Z,15.26
2019-03-31T16:36:45.695Z,15.03
2019-03-31T16:41:48.264Z,14.89
2019-03-31T16:46:50.507Z,14.76
2019-03-31T16:51:52.976Z,14.60
2019-03-31T16:56:55.151Z,14.58
2019-03-31T17:01:58.315Z,14.49
2019-03-31T17:07:00.616Z,14.32
2019-03-31T17:12:03.932Z,14.17
2019-03-31T17:17:07.372Z,13.99
2019-03-31T17:22:09.821Z,13.81
2019-03-31T17:27:14.082Z,13.69
2019-03-31T17:32:16.829Z,13.58
2019-03-31T17:37:19.062Z,13.48
2019-03-31T17:42:21.348Z,13.26
2019-03-31T17:47:23.574Z,13.12
2019-03-31T17:52:26.759Z,13.05
2019-03-31T17:57:29.029Z,12.90
2019-03-31T18:02:31.778Z,12.79
2019-03-31T18:07:34.887Z,12.61
2019-03-31T18:12:37.875Z,12.52
2019-03-31T18:17:40.101Z,12.39
2019-03-31T18:22:42.761Z,12.26
2019-03-31T18:27:45.457Z,12.14
2019-03-31T18:32:48.382Z,12.06
2019-03-31T18:37:50.962Z,11.95
2019-03-31T18:42:53.867Z,11.82
2019-03-31T18:48:00.994Z,11.67
2019-03-31T18:53:03.194Z,11.49
2019-03-31T18:58:17.358Z,11.35
2019-03-31T19:03:34.683Z,11.28
2019-03-31T19:14:04.623Z,11.62
2019-03-31T19:19:21.491Z,11.62
2019-03-31T19:24:46.743Z,10.79
2019-03-31T19:30:15.562Z,10.66
2019-03-31T19:35:33.361Z,10.53
2019-03-31T19:41:02.978Z,10.40
2019-03-31T19:46:05.940Z,10.33
2019-03-31T19:51:27.072Z,10.25
2019-03-31T19:56:50.169Z,10.12
2019-03-31T20:02:10.121Z,9.99
2019-03-31T20:07:35.111Z,9.86
2019-03-31T20:12:56.984Z,9.79
2019-03-31T20:18:25.084Z,9.73
2019-03-31T20:23:43.038Z,9.60
2019-03-31T20:28:56.283Z,9.52
2019-03-31T20:34:18.494Z,9.40
2019-03-31T20:39:56.861Z,9.19
2019-03-31T20:44:59.423Z,9.11
2019-03-31T20:50:07.050Z,9.03
2019-03-31T20:55:16.456Z,8.94
2019-03-31T21:00:15.088Z,8.83
2019-03-31T21:05:18.570Z,8.80
2019-03-31T21:10:20.758Z,8.75
2019-03-31T21:15:23.117Z,8.65
2019-03-31T21:20:25.397Z,8.58
2019-03-31T21:25:27.614Z,8.48
2019-03-31T21:30:30.449Z,8.39
2019-03-31T21:35:33.553Z,8.32
2019-03-31T21:40:35.773Z,8.28
2019-03-31T21:45:38.542Z,8.23
2019-03-31T21:50:41.011Z,8.17
2019-03-31T21:55:43.641Z,8.13
2019-03-31T22:00:53.687Z,8.07
2019-03-31T22:05:56.513Z,8.00
2019-03-31T22:10:58.771Z,7.96
2019-03-31T22:16:00.996Z,7.91
2019-03-31T22:21:03.769Z,7.83
2019-03-31T22:26:06.078Z,7.78
2019-03-31T22:31:08.512Z,7.62
2019-03-31T22:36:20.136Z,7.47
2019-03-31T22:41:23.872Z,7.38
2019-03-31T22:46:26.419Z,7.32
2019-03-31T22:51:28.601Z,7.24
2019-03-31T22:56:30.786Z,7.15
2019-03-31T23:01:33.816Z,7.04
2019-03-31T23:06:37.747Z,6.94
2019-03-31T23:11:41.790Z,6.83
2019-03-31T23:16:44.698Z,6.72
2019-03-31T23:21:46.839Z,6.60
2019-03-31T23:26:50.171Z,6.54
2019-03-31T23:31:52.967Z,6.48
